createdAt,value
2023-02-19T00:00:49.270Z,82.70
2023-02-19T00:03:23.197Z,82.77
2023-02-19T00:05:38.595Z,83.40
2023-02-19T00:07:51.805Z,83.79
2023-02-19T00:10:04.883Z,83.45
2023-02-19T00:12:17.820Z,83.31
2023-02-19T00:14:30.935Z,83.66
2023-02-19T00:16:44.537Z,83.07
2023-02-19T00:18:59.639Z,83.37
2023-02-19T00:21:13.134Z,83.51
2023-02-19T00:23:26.111Z,83.40
2023-02-19T00:25:42.346Z,83.69
2023-02-19T00:27:55.564Z,83.58
2023-02-19T00:30:10.267Z,83.40
2023-02-19T00:32:23.700Z,83.52
2023-02-19T00:34:36.888Z,83.80
2023-02-19T00:36:50.788Z,83.71
2023-02-19T00:39:04.812Z,83.78
2023-02-19T00:41:22.266Z,83.99
2023-02-19T00:43:36.558Z,83.87
2023-02-19T00:45:50.561Z,83.76
2023-02-19T00:48:04.999Z,83.65
2023-02-19T00:50:18.564Z,83.79
2023-02-19T00:52:32.690Z,83.57
2023-02-19T00:54:45.921Z,83.72
2023-02-19T00:56:58.940Z,83.63
2023-02-19T00:59:13.053Z,83.80
2023-02-19T01:01:26.646Z,83.98
2023-02-19T01:03:40.415Z,83.94
2023-02-19T01:05:53.616Z,84.09
2023-02-19T01:08:07.167Z,83.90
2023-02-19T01:10:22.155Z,83.95
2023-02-19T01:12:35.348Z,84.01
2023-02-19T01:14:48.694Z,84.02
2023-02-19T01:17:02.015Z,84.00
2023-02-19T01:19:15.994Z,84.16
2023-02-19T01:21:32.257Z,84.29
2023-02-19T01:23:45.537Z,84.35
2023-02-19T01:25:58.513Z,84.12
2023-02-19T01:28:12.094Z,84.13
2023-02-19T01:30:26.039Z,84.27
2023-02-19T01:32:39.588Z,84.23
2023-02-19T01:34:52.653Z,84.33
2023-02-19T01:37:06.894Z,84.51
2023-02-19T01:39:20.484Z,84.58
2023-02-19T01:41:34.404Z,84.53
2023-02-19T01:46:34.447Z,84.16
2023-02-19T01:48:47.959Z,83.63
2023-02-19T01:51:07.232Z,84.01
2023-02-19T01:53:25.231Z,83.85
2023-02-19T01:55:39.616Z,84.28
2023-02-19T01:57:58.215Z,84.52
2023-02-19T02:00:18.000Z,83.87
2023-02-19T02:02:32.875Z,84.06
2023-02-19T02:04:48.962Z,84.05
2023-02-19T02:07:04.468Z,84.14
2023-02-19T02:09:36.080Z,84.12
2023-02-19T02:11:55.088Z,83.54
2023-02-19T02:14:09.688Z,83.95
2023-02-19T02:16:33.262Z,84.02
2023-02-19T02:18:58.680Z,84.22
2023-02-19T02:21:29.918Z,84.18
2023-02-19T02:24:10.560Z,84.24
2023-02-19T02:26:48.849Z,84.28
2023-02-19T02:29:39.969Z,84.21
2023-02-19T02:32:00.213Z,84.04
2023-02-19T02:34:19.920Z,84.23
2023-02-19T02:36:39.434Z,84.10
2023-02-19T02:38:55.644Z,84.17
2023-02-19T02:41:10.468Z,84.40
2023-02-19T02:43:25.274Z,84.42
2023-02-19T02:45:41.247Z,84.44
2023-02-19T02:48:36.199Z,84.42
2023-02-19T02:50:54.488Z,84.64
2023-02-19T02:53:28.241Z,84.59
2023-02-19T02:55:45.830Z,84.49
2023-02-19T02:58:00.929Z,84.48
2023-02-19T03:00:17.243Z,84.77
2023-02-19T03:02:35.629Z,85.18
2023-02-19T03:05:14.604Z,85.29
2023-02-19T03:07:31.519Z,85.47
2023-02-19T03:09:49.648Z,85.54
2023-02-19T03:12:23.679Z,85.58
2023-02-19T03:14:58.569Z,85.64
2023-02-19T03:17:48.433Z,85.65
2023-02-19T03:20:13.953Z,85.66
2023-02-19T03:22:33.608Z,85.61
2023-02-19T03:25:11.877Z,85.61
2023-02-19T03:27:30.428Z,85.65
2023-02-19T03:29:47.681Z,85.77
2023-02-19T03:32:06.622Z,85.65
2023-02-19T03:34:28.490Z,85.76
2023-02-19T03:36:55.285Z,85.74
2023-02-19T03:39:12.077Z,85.67
2023-02-19T03:41:35.915Z,85.67
2023-02-19T03:43:57.336Z,85.73
2023-02-19T03:46:17.915Z,85.68
2023-02-19T03:48:37.895Z,85.73
2023-02-19T03:51:00.793Z,85.71
2023-02-19T03:53:22.021Z,85.81
2023-02-19T03:55:47.005Z,85.54
2023-02-19T03:58:11.363Z,85.48
2023-02-19T04:00:30.669Z,85.64
2023-02-19T04:02:49.074Z,85.61
2023-02-19T04:05:11.326Z,85.68
2023-02-19T04:07:27.593Z,85.77
2023-02-19T04:09:45.099Z,85.88
2023-02-19T04:12:03.740Z,85.83
2023-02-19T04:14:23.343Z,86.04
2023-02-19T04:16:39.510Z,85.85
2023-02-19T04:18:57.960Z,85.94
2023-02-19T04:21:12.964Z,85.91
2023-02-19T04:23:29.969Z,85.87
2023-02-19T04:25:46.300Z,85.87
2023-02-19T04:28:00.125Z,85.78
2023-02-19T04:30:17.139Z,85.71
2023-02-19T04:32:31.328Z,85.85
2023-02-19T04:34:45.328Z,85.85
2023-02-19T04:36:59.586Z,85.79
2023-02-19T04:39:18.320Z,85.88
2023-02-19T04:41:34.687Z,85.90
2023-02-19T04:43:48.936Z,86.01
2023-02-19T04:46:15.985Z,86.07
2023-02-19T04:48:32.644Z,86.14
2023-02-19T04:50:49.711Z,86.17
2023-02-19T04:53:03.954Z,86.17
2023-02-19T04:55:17.625Z,86.23
2023-02-19T04:57:31.597Z,86.09
2023-02-19T04:59:45.913Z,85.95
2023-02-19T05:02:01.057Z,85.85
2023-02-19T05:04:15.203Z,86.11
2023-02-19T05:06:29.546Z,86.31
2023-02-19T05:08:44.594Z,86.22
2023-02-19T05:11:00.984Z,85.99
2023-02-19T05:13:14.432Z,86.09
2023-02-19T05:15:33.773Z,85.90
2023-02-19T05:17:50.495Z,86.04
2023-02-19T05:20:05.036Z,86.14
2023-02-19T05:22:23.197Z,86.10
2023-02-19T05:24:38.245Z,86.15
2023-02-19T05:26:53.720Z,86.11
2023-02-19T05:29:07.706Z,85.99
2023-02-19T05:31:22.130Z,85.97
2023-02-19T05:33:40.256Z,85.80
2023-02-19T05:35:57.954Z,85.81
2023-02-19T05:38:13.914Z,86.05
2023-02-19T05:40:27.354Z,85.80
2023-02-19T05:42:43.754Z,85.89
2023-02-19T05:44:57.393Z,85.86
2023-02-19T05:47:10.667Z,85.79
2023-02-19T05:49:24.644Z,85.78
2023-02-19T05:51:39.280Z,85.81
2023-02-19T05:53:54.226Z,85.76
2023-02-19T05:56:07.700Z,85.84
2023-02-19T05:58:23.003Z,85.76
2023-02-19T06:00:36.554Z,85.94
2023-02-19T06:02:50.793Z,85.93
2023-02-19T06:05:04.034Z,86.05
2023-02-19T06:07:17.435Z,85.99
2023-02-19T06:09:30.734Z,86.15
2023-02-19T06:11:45.444Z,86.33
2023-02-19T06:13:59.515Z,86.41
2023-02-19T06:16:14.270Z,86.52
2023-02-19T06:18:27.854Z,86.65
2023-02-19T06:20:41.613Z,86.67
2023-02-19T06:22:56.594Z,86.82
2023-02-19T06:25:14.084Z,86.76
2023-02-19T06:27:30.311Z,86.83
2023-02-19T06:29:43.898Z,86.90
2023-02-19T06:31:58.045Z,87.02
2023-02-19T06:34:12.938Z,86.94
2023-02-19T06:36:28.018Z,87.03
2023-02-19T06:38:42.093Z,87.05
2023-02-19T06:40:57.010Z,86.81
2023-02-19T06:43:10.190Z,86.90
2023-02-19T06:45:24.243Z,86.89
2023-02-19T06:47:39.874Z,86.97
2023-02-19T06:49:53.801Z,86.90
2023-02-19T06:52:08.021Z,87.16
2023-02-19T06:54:21.331Z,87.27
2023-02-19T06:56:37.452Z,87.30
2023-02-19T06:58:51.261Z,87.17
2023-02-19T07:01:04.811Z,87.13
2023-02-19T07:03:18.004Z,87.11
2023-02-19T07:05:31.131Z,87.19
2023-02-19T07:07:44.219Z,87.18
2023-02-19T07:09:57.827Z,87.05
2023-02-19T07:12:12.566Z,87.11
2023-02-19T07:14:26.046Z,86.99
2023-02-19T07:16:40.478Z,86.90
2023-02-19T07:18:54.103Z,87.05
2023-02-19T07:21:11.982Z,87.12
2023-02-19T07:23:25.385Z,87.21
2023-02-19T07:25:38.565Z,87.26
2023-02-19T07:27:51.777Z,86.92
2023-02-19T07:30:06.190Z,87.03
2023-02-19T07:32:21.339Z,87.26
2023-02-19T07:34:36.324Z,87.29
2023-02-19T07:36:50.554Z,86.95
2023-02-19T07:39:04.647Z,87.12
2023-02-19T07:41:18.047Z,87.30
2023-02-19T07:43:38.925Z,87.43
2023-02-19T07:45:52.656Z,87.45
2023-02-19T07:48:06.189Z,87.48
2023-02-19T07:50:18.529Z,87.75
2023-02-19T07:52:32.182Z,87.70
2023-02-19T07:54:46.071Z,87.76
2023-02-19T07:56:59.350Z,87.85
2023-02-19T07:59:12.924Z,87.87
2023-02-19T08:01:50.391Z,87.95
2023-02-19T08:04:04.644Z,88.02
2023-02-19T08:06:18.740Z,88.20
2023-02-19T08:08:32.441Z,88.42
2023-02-19T08:11:02.043Z,88.53
2023-02-19T08:13:26.347Z,88.57
2023-02-19T08:15:41.084Z,88.59
2023-02-19T08:17:54.206Z,88.57
2023-02-19T08:20:09.703Z,88.74
2023-02-19T08:22:22.597Z,88.72
2023-02-19T08:24:36.333Z,88.79
2023-02-19T08:26:49.669Z,88.90
2023-02-19T08:29:02.665Z,88.99
2023-02-19T08:31:17.349Z,89.04
2023-02-19T08:33:30.978Z,88.95
2023-02-19T08:35:45.108Z,88.85
2023-02-19T08:38:01.796Z,88.93
2023-02-19T08:40:16.558Z,88.89
2023-02-19T08:42:31.539Z,89.02
2023-02-19T08:44:44.818Z,89.24
2023-02-19T08:46:58.437Z,89.08
2023-02-19T08:49:11.396Z,89.21
2023-02-19T08:51:24.926Z,89.18
2023-02-19T08:53:39.690Z,89.18
2023-02-19T08:55:52.780Z,89.41
2023-02-19T08:58:06.225Z,89.67
2023-02-19T09:00:20.665Z,89.57
2023-02-19T09:02:34.113Z,89.68
2023-02-19T09:04:47.544Z,89.61
2023-02-19T09:07:01.955Z,89.68
2023-02-19T09:09:15.313Z,89.97
2023-02-19T09:11:28.219Z,89.87
2023-02-19T09:13:43.054Z,90.04
2023-02-19T09:15:55.997Z,90.15
2023-02-19T09:18:09.094Z,90.21
2023-02-19T09:20:22.646Z,90.21
2023-02-19T09:22:36.254Z,90.17
2023-02-19T09:24:49.417Z,90.36
2023-02-19T09:27:03.008Z,90.14
2023-02-19T09:29:16.628Z,90.44
2023-02-19T09:31:29.687Z,90.23
2023-02-19T09:33:45.529Z,90.36
2023-02-19T09:36:02.000Z,90.27
2023-02-19T09:38:14.959Z,90.20
2023-02-19T09:40:28.416Z,90.06
2023-02-19T09:42:43.458Z,90.21
2023-02-19T09:44:59.588Z,90.25
2023-02-19T09:47:19.130Z,90.21
2023-02-19T09:49:35.825Z,90.31
2023-02-19T09:51:51.545Z,90.42
2023-02-19T09:54:05.549Z,90.50
2023-02-19T09:56:19.656Z,90.67
2023-02-19T09:58:38.525Z,90.70
2023-02-19T10:00:54.526Z,90.93
2023-02-19T10:03:14.342Z,90.86
2023-02-19T10:05:29.534Z,91.01
2023-02-19T10:07:46.925Z,91.08
2023-02-19T10:10:04.256Z,90.96
2023-02-19T10:12:22.750Z,90.91
2023-02-19T10:14:43.843Z,90.76
2023-02-19T10:16:56.934Z,91.01
2023-02-19T10:19:13.018Z,91.21
2023-02-19T10:21:28.333Z,91.28
2023-02-19T10:23:43.045Z,91.42
2023-02-19T10:25:59.776Z,91.11
2023-02-19T10:28:18.244Z,91.04
2023-02-19T10:30:35.519Z,90.90
2023-02-19T10:33:05.339Z,90.86
2023-02-19T10:35:21.174Z,91.07
2023-02-19T10:37:34.566Z,91.33
2023-02-19T10:39:50.302Z,91.54
2023-02-19T10:42:03.766Z,91.52
2023-02-19T10:44:22.252Z,91.97
2023-02-19T10:46:39.058Z,92.07
2023-02-19T10:48:56.681Z,91.88
2023-02-19T10:51:14.433Z,91.81
2023-02-19T10:53:39.281Z,91.96
2023-02-19T10:55:52.416Z,91.93
2023-02-19T10:58:28.266Z,91.88
2023-02-19T11:00:42.035Z,91.52
2023-02-19T11:03:15.309Z,91.51
2023-02-19T11:05:29.784Z,91.63
2023-02-19T11:07:47.530Z,91.50
2023-02-19T11:10:02.025Z,91.39
2023-02-19T11:12:16.334Z,91.39
2023-02-19T11:14:31.435Z,91.29
2023-02-19T11:16:50.189Z,91.35
2023-02-19T11:19:04.441Z,91.30
2023-02-19T11:21:34.310Z,91.32
2023-02-19T11:23:51.864Z,91.25
2023-02-19T11:26:08.550Z,91.06
2023-02-19T11:28:33.434Z,91.34
2023-02-19T11:30:48.576Z,91.70
2023-02-19T11:33:16.856Z,91.83
2023-02-19T11:35:33.373Z,91.76
2023-02-19T11:38:01.118Z,91.94
2023-02-19T11:40:19.336Z,91.84
2023-02-19T11:42:44.358Z,92.07
2023-02-19T11:45:17.137Z,91.92
2023-02-19T11:47:39.848Z,91.87
2023-02-19T11:49:59.091Z,92.02
2023-02-19T11:52:28.233Z,92.17
2023-02-19T11:54:59.559Z,92.20
2023-02-19T11:57:21.419Z,92.40
2023-02-19T11:59:42.926Z,92.45
2023-02-19T12:02:18.970Z,92.65
2023-02-19T12:05:03.358Z,92.21
2023-02-19T12:07:31.015Z,92.34
2023-02-19T12:10:02.326Z,92.50
2023-02-19T12:12:33.575Z,92.39
2023-02-19T12:15:05.849Z,92.59
2023-02-19T12:17:32.024Z,92.58
2023-02-19T12:20:02.312Z,92.31
2023-02-19T12:22:33.365Z,92.24
2023-02-19T12:25:04.791Z,92.36
2023-02-19T12:27:30.321Z,92.57
2023-02-19T12:30:06.665Z,92.71
2023-02-19T12:32:49.477Z,92.78
2023-02-19T12:35:40.074Z,92.89
2023-02-19T12:38:03.435Z,92.69
2023-02-19T12:40:36.755Z,92.78
2023-02-19T12:43:05.408Z,92.82
2023-02-19T12:45:24.935Z,92.73
2023-02-19T12:47:44.566Z,92.80
2023-02-19T12:50:09.062Z,92.83
2023-02-19T12:52:26.006Z,92.89
2023-02-19T12:54:42.397Z,92.80
2023-02-19T12:57:00.190Z,92.81
2023-02-19T12:59:19.098Z,92.74
2023-02-19T13:01:35.302Z,92.62
2023-02-19T13:03:55.250Z,92.80
2023-02-19T13:06:19.518Z,92.76
2023-02-19T13:08:35.656Z,92.81
2023-02-19T13:10:53.123Z,92.78
2023-02-19T13:13:10.313Z,92.59
2023-02-19T13:15:29.102Z,92.62
2023-02-19T13:17:48.301Z,92.69
2023-02-19T13:20:07.021Z,92.69
2023-02-19T13:22:44.551Z,92.63
2023-02-19T13:24:58.959Z,92.50
2023-02-19T13:27:31.234Z,92.57
2023-02-19T13:30:10.382Z,92.53
2023-02-19T13:32:43.313Z,92.39
2023-02-19T13:35:02.838Z,92.39
2023-02-19T13:37:16.043Z,92.51
2023-02-19T13:39:31.103Z,92.58
2023-02-19T13:41:52.720Z,92.49
2023-02-19T13:44:09.397Z,92.68
2023-02-19T13:46:23.402Z,92.78
2023-02-19T13:48:38.328Z,92.85
2023-02-19T13:50:51.730Z,92.77
2023-02-19T13:53:05.589Z,92.52
2023-02-19T13:55:57.239Z,92.62
2023-02-19T13:58:38.708Z,92.41
2023-02-19T14:01:02.491Z,92.26
2023-02-19T14:03:33.112Z,92.42
2023-02-19T14:06:07.356Z,92.55
2023-02-19T14:08:54.301Z,92.73
2023-02-19T14:11:09.311Z,92.81
2023-02-19T14:14:13.170Z,92.94
2023-02-19T14:16:36.212Z,92.95
2023-02-19T14:18:51.557Z,92.52
2023-02-19T14:21:19.936Z,92.60
2023-02-19T14:23:33.776Z,92.42
2023-02-19T14:25:57.826Z,92.41
2023-02-19T14:28:17.911Z,92.49
2023-02-19T14:30:32.198Z,92.72
2023-02-19T14:32:51.043Z,92.78
2023-02-19T14:35:04.414Z,92.78
2023-02-19T14:37:24.564Z,92.60
2023-02-19T14:39:41.423Z,92.70
2023-02-19T14:41:59.628Z,92.88
2023-02-19T14:44:20.453Z,92.86
2023-02-19T14:46:36.803Z,92.90
2023-02-19T14:48:52.793Z,92.90
2023-02-19T14:51:11.331Z,93.00
2023-02-19T14:53:26.802Z,92.99
2023-02-19T14:55:43.764Z,92.96
2023-02-19T14:58:00.026Z,92.76
2023-02-19T15:00:29.805Z,92.75
2023-02-19T15:02:48.117Z,92.63
2023-02-19T15:05:02.481Z,92.73
2023-02-19T15:07:18.893Z,92.74
2023-02-19T15:09:40.352Z,92.75
2023-02-19T15:11:53.553Z,92.70
2023-02-19T15:14:08.587Z,92.96
2023-02-19T15:16:27.105Z,93.14
2023-02-19T15:18:43.253Z,93.51
2023-02-19T15:21:02.503Z,93.49
2023-02-19T15:23:22.653Z,93.45
2023-02-19T15:25:39.145Z,93.53
2023-02-19T15:27:53.087Z,93.39
2023-02-19T15:30:06.752Z,93.62
2023-02-19T15:32:27.397Z,93.39
2023-02-19T15:34:43.271Z,93.29
2023-02-19T15:37:04.599Z,93.13
2023-02-19T15:39:26.229Z,93.14
2023-02-19T15:41:41.630Z,93.10
2023-02-19T15:44:00.319Z,93.18
2023-02-19T15:46:20.689Z,93.30
2023-02-19T15:48:39.040Z,93.44
2023-02-19T15:50:56.516Z,93.56
2023-02-19T15:53:12.531Z,93.44
2023-02-19T15:55:39.921Z,93.65
2023-02-19T15:57:57.240Z,93.77
2023-02-19T16:00:18.294Z,93.72
2023-02-19T16:02:31.701Z,93.29
2023-02-19T16:04:47.053Z,93.10
2023-02-19T16:07:04.504Z,93.45
2023-02-19T16:09:32.128Z,93.69
2023-02-19T16:11:51.632Z,93.78
2023-02-19T16:14:27.040Z,93.73
2023-02-19T16:16:46.649Z,93.99
2023-02-19T16:19:00.643Z,94.12
2023-02-19T16:21:15.319Z,94.13
2023-02-19T16:23:28.862Z,94.17
2023-02-19T16:25:45.391Z,94.13
2023-02-19T16:28:01.264Z,94.26
2023-02-19T16:30:27.576Z,94.32
2023-02-19T16:32:40.921Z,94.37
2023-02-19T16:34:55.732Z,94.46
2023-02-19T16:37:22.200Z,94.73
2023-02-19T16:39:35.810Z,94.50
2023-02-19T16:42:20.861Z,94.83
2023-02-19T16:44:40.871Z,95.15
2023-02-19T16:47:11.307Z,95.18
2023-02-19T16:49:34.147Z,95.28
2023-02-19T16:51:47.688Z,95.28
2023-02-19T16:54:01.668Z,95.64
2023-02-19T16:56:24.109Z,95.68
2023-02-19T16:58:39.890Z,95.87
2023-02-19T17:00:56.419Z,96.26
2023-02-19T17:03:14.936Z,96.67
2023-02-19T17:05:29.938Z,97.06
2023-02-19T17:07:46.364Z,97.38
2023-02-19T17:10:06.858Z,97.61
2023-02-19T17:12:28.442Z,97.79
2023-02-19T17:14:46.470Z,98.07
2023-02-19T17:17:10.817Z,98.26
2023-02-19T17:19:26.588Z,98.11
2023-02-19T17:21:48.408Z,97.87
2023-02-19T17:24:05.079Z,97.82
2023-02-19T17:26:24.576Z,97.65
2023-02-19T17:28:41.546Z,97.59
2023-02-19T17:30:59.800Z,97.69
2023-02-19T17:33:19.927Z,97.70
2023-02-19T17:35:36.451Z,97.46
2023-02-19T17:37:53.262Z,97.51
2023-02-19T17:40:48.349Z,97.43
2023-02-19T17:43:01.379Z,96.92
2023-02-19T17:45:15.327Z,96.97
2023-02-19T17:47:29.045Z,96.95
2023-02-19T17:49:42.629Z,96.94
2023-02-19T17:51:56.224Z,96.69
2023-02-19T17:54:09.418Z,96.53
2023-02-19T17:56:27.358Z,96.56
2023-02-19T17:58:40.555Z,96.28
2023-02-19T18:00:56.993Z,96.22
2023-02-19T18:03:11.697Z,96.17
2023-02-19T18:05:25.789Z,96.44
2023-02-19T18:07:42.537Z,96.25
2023-02-19T18:09:56.428Z,96.26
2023-02-19T18:12:10.274Z,96.45
2023-02-19T18:14:28.640Z,96.12
2023-02-19T18:16:49.761Z,96.00
2023-02-19T18:19:03.831Z,95.25
2023-02-19T18:21:18.739Z,94.81
2023-02-19T18:23:32.495Z,94.43
2023-02-19T18:25:46.510Z,93.96
2023-02-19T18:28:01.151Z,93.81
2023-02-19T18:30:17.907Z,93.72
2023-02-19T18:32:31.770Z,93.48
2023-02-19T18:34:44.898Z,93.50
2023-02-19T18:36:58.199Z,93.38
2023-02-19T18:39:11.559Z,92.73
2023-02-19T18:41:25.711Z,92.28
2023-02-19T18:43:38.863Z,92.25
2023-02-19T18:45:52.143Z,91.86
2023-02-19T18:48:05.324Z,91.89
2023-02-19T18:50:19.453Z,91.70
2023-02-19T18:52:33.249Z,91.34
2023-02-19T18:54:46.399Z,90.25
2023-02-19T18:57:01.879Z,89.86
2023-02-19T18:59:16.810Z,89.72
2023-02-19T19:01:30.029Z,89.24
2023-02-19T19:03:43.390Z,88.82
2023-02-19T19:05:56.640Z,87.57
2023-02-19T19:08:10.138Z,87.49
2023-02-19T19:10:24.038Z,87.24
2023-02-19T19:12:37.478Z,87.11
2023-02-19T19:14:51.056Z,86.69
2023-02-19T19:17:05.332Z,86.31
2023-02-19T19:19:19.294Z,86.98
2023-02-19T19:21:32.636Z,86.90
2023-02-19T19:23:46.762Z,86.57
2023-02-19T19:26:00.420Z,86.74
2023-02-19T19:28:13.502Z,86.75
2023-02-19T19:30:28.163Z,86.65
2023-02-19T19:32:42.064Z,86.39
2023-02-19T19:35:01.445Z,85.73
2023-02-19T19:37:16.697Z,85.44
2023-02-19T19:39:30.442Z,84.61
2023-02-19T19:41:44.053Z,85.09
2023-02-19T19:43:57.134Z,84.49
2023-02-19T19:46:11.238Z,84.23
2023-02-19T19:48:24.342Z,84.46
2023-02-19T19:50:37.430Z,84.35
2023-02-19T19:52:51.087Z,84.54
2023-02-19T19:55:04.431Z,84.33
2023-02-19T19:57:19.535Z,84.33
2023-02-19T19:59:33.211Z,84.08
2023-02-19T20:01:54.304Z,84.22
2023-02-19T20:04:07.910Z,83.95
2023-02-19T20:06:31.034Z,82.89
2023-02-19T20:08:44.151Z,82.96
2023-02-19T20:10:57.800Z,82.77
2023-02-19T20:13:10.998Z,82.34
2023-02-19T20:15:29.140Z,81.73
2023-02-19T20:17:42.437Z,80.43
2023-02-19T20:19:55.568Z,81.02
2023-02-19T20:22:08.838Z,81.18
2023-02-19T20:24:25.269Z,81.51
2023-02-19T20:26:38.568Z,81.72
2023-02-19T20:28:51.658Z,81.11
2023-02-19T20:31:05.924Z,79.15
2023-02-19T20:33:19.974Z,78.84
2023-02-19T20:35:33.722Z,79.62
2023-02-19T20:37:49.349Z,80.31
2023-02-19T20:40:03.787Z,80.33
2023-02-19T20:42:18.134Z,80.26
2023-02-19T20:44:32.301Z,80.56
2023-02-19T20:46:50.763Z,80.89
2023-02-19T20:49:03.928Z,80.95
2023-02-19T20:51:17.477Z,81.26
2023-02-19T20:53:31.158Z,80.84
2023-02-19T20:55:46.298Z,81.18
2023-02-19T20:57:59.999Z,81.45
2023-02-19T21:00:16.817Z,81.62
2023-02-19T21:02:32.049Z,81.88
2023-02-19T21:04:45.570Z,82.31
2023-02-19T21:06:58.718Z,82.96
2023-02-19T21:09:12.009Z,83.33
2023-02-19T21:11:24.917Z,83.73
2023-02-19T21:13:38.481Z,84.18
2023-02-19T21:15:51.807Z,84.59
2023-02-19T21:18:06.179Z,85.06
2023-02-19T21:20:20.836Z,85.24
2023-02-19T21:22:33.951Z,85.15
2023-02-19T21:24:50.639Z,84.98
2023-02-19T21:27:03.570Z,85.52
2023-02-19T21:29:21.802Z,85.66
2023-02-19T21:31:42.708Z,86.23
2023-02-19T21:33:56.831Z,86.07
2023-02-19T21:36:12.002Z,86.35
2023-02-19T21:38:25.909Z,86.62
2023-02-19T21:40:39.500Z,86.94
2023-02-19T21:42:52.532Z,87.37
2023-02-19T21:45:06.412Z,87.50
2023-02-19T21:47:19.559Z,87.86
2023-02-19T21:49:32.708Z,88.22
2023-02-19T21:51:49.075Z,88.19
2023-02-19T21:54:05.913Z,88.56
2023-02-19T21:56:27.332Z,88.73
2023-02-19T21:58:40.497Z,88.84
2023-02-19T22:00:54.927Z,89.10
2023-02-19T22:03:08.586Z,89.66
2023-02-19T22:05:22.535Z,90.15
2023-02-19T22:07:35.844Z,90.48
2023-02-19T22:09:48.984Z,90.36
2023-02-19T22:12:01.963Z,90.37
2023-02-19T22:14:15.222Z,90.07
2023-02-19T22:16:29.879Z,89.84
2023-02-19T22:18:49.079Z,89.70
2023-02-19T22:21:02.124Z,89.42
2023-02-19T22:23:15.413Z,89.55
2023-02-19T22:25:28.957Z,89.53
2023-02-19T22:27:42.313Z,89.58
2023-02-19T22:29:55.673Z,89.61
2023-02-19T22:32:10.805Z,89.65
2023-02-19T22:34:25.436Z,89.69
2023-02-19T22:36:40.320Z,89.75
2023-02-19T22:38:54.102Z,89.88
2023-02-19T22:41:07.050Z,89.66
2023-02-19T22:43:23.003Z,89.98
2023-02-19T22:45:36.320Z,90.20
2023-02-19T22:47:50.450Z,90.51
2023-02-19T22:50:05.053Z,90.67
2023-02-19T22:52:18.794Z,90.90
2023-02-19T22:54:32.683Z,90.84
2023-02-19T22:56:45.858Z,90.89
2023-02-19T22:58:59.854Z,90.88
2023-02-19T23:01:14.086Z,90.97
2023-02-19T23:03:28.155Z,91.06
2023-02-19T23:05:41.279Z,91.30
2023-02-19T23:07:54.291Z,91.46
2023-02-19T23:10:07.549Z,91.53
2023-02-19T23:12:21.232Z,91.64
2023-02-19T23:14:34.140Z,91.60
2023-02-19T23:16:47.145Z,91.86
2023-02-19T23:19:00.720Z,92.19
2023-02-19T23:21:14.079Z,92.16
2023-02-19T23:23:27.044Z,92.10
2023-02-19T23:25:39.964Z,92.28
2023-02-19T23:27:53.894Z,92.42
2023-02-19T23:30:08.045Z,92.87
2023-02-19T23:32:22.232Z,92.88
2023-02-19T23:34:35.966Z,93.01
2023-02-19T23:36:50.479Z,92.91
2023-02-19T23:39:03.500Z,93.06
2023-02-19T23:41:18.806Z,93.19
2023-02-19T23:43:32.818Z,93.07
2023-02-19T23:45:46.289Z,93.31
2023-02-19T23:47:59.725Z,93.31
2023-02-19T23:50:14.625Z,93.62
2023-02-19T23:52:28.094Z,93.90
2023-02-19T23:54:41.714Z,94.37
2023-02-19T23:56:55.253Z,94.31
2023-02-19T23:59:08.333Z,94.23
